AirNav   Pilot Hours Calculator
 
 1528 users online  

PN27 Station 219 Heliport
Mercer, Pennsylvania, USA

GOING TO MERCER?


FAA INFORMATION EFFECTIVE 02 JANUARY 2020

Location

FAA Identifier: PN27
Lat/Long: 41-16-29.2050N 080-16-38.2300W
41-16.486750N 080-16.637167W
41.2747792,-80.2772861
(estimated)
Elevation: 1310 ft. / 399 m (estimated)
Variation: 08W (1990)
From city: 10 miles N of MERCER, PA
Time zone: UTC -5 (UTC -4 during Daylight Saving Time)
Zip code: 16137

Heliport Operations

Heliport use: Private use. Permission required prior to landing
Activation date: 03/1994
Control tower: no
ARTCC: CLEVELAND CENTER
FSS: ALTOONA FLIGHT SERVICE STATION
Attendance: UNATNDD
Segmented circle: no

Heliport Communications

WX AWOS-3PT at UCP (16 nm S): 124.175 ((724) 652-4184)
WX ASOS at YNG (18 nm W): PHONE 330-856-9357
WX AWOS-3PT at FKL (20 nm E): 118.175 ((814) 437-2066)

Nearby radio navigation aids

VOR radial/distance  VOR name  Freq  Var
YNGr106/18.2YOUNGSTOWN VORTAC109.0005W
FKLr249/(21.3)FRANKLIN VOR109.6006W
EWCr002/27.2ELLWOOD CITY VOR/DME115.8008W
JFNr149/36.0JEFFERSON VOR/DME115.2005W
CIPr288/37.8CLARION VOR/DME112.9006W

 
NDB name  Hdg/Dist  Freq  Var  ID
CASTLE032/16.427209WUCP ..- -.-. .--.

Heliport Services

Runway Information

Helipad H1

Dimensions: 20 x 20 ft. / 6 x 6 m
Surface: concrete
Traffic pattern: leftleft

Heliport Ownership and Management from official FAA records

Ownership: Privately-owned
Owner: TENNESSEE GAS PIPELINE
1211 GREENVILLE MERCER RD
MERCER, PA 16137
Phone 724-662-2990
Manager: ERIC SAWYER
1615 SUFFIELD ST.
AGAWAM, MA 01001
Phone 413-221-2051

Additional Remarks

FOR CD CTC YOUNGSTOWN APCH AT 330-856-4806, WHEN APCH CLSD CTC CLEVELAND ARTCC AT 440-774-0490.

Instrument Procedures

There are no published instrument procedures at PN27.

Some nearby airports with instrument procedures:

29D - Grove City Airport (9 nm SE)
4G1 - Greenville Municipal Airport (12 nm NW)
KUCP - New Castle Municipal Airport (16 nm S)
KYNG - Youngstown-Warren Regional Airport (18 nm W)
KFKL - Venango Regional Airport (20 nm E)
 
Loc | Ops | Rwys | IFR | FBO | Links
Com | Nav | Svcs | Stats | Notes
Area around PN27 (Station 219 Heliport)
 
Road maps at: MapQuest Bing Google
 
Aerial photo
No photo
 
Sectional chart

 
Airport distance calculator
Flying to Station 219 Heliport? Find the distance to fly.

From to PN27

Sunrise and sunset
Times for 23-Jan-2020
 Local
(UTC-5)
 Zulu
(UTC)
Morning civil twilight07:1112:11
Sunrise07:4112:41
Sunset17:2522:25
Evening civil twilight17:5522:55

Current date and time
Zulu (UTC)  23-Jan-2020 23:10:34
Local (UTC-5)  23-Jan-2020 18:10:34
 
METAR
KUCP 
16nm S 
232256Z AUTO 00000KT 10SM FEW120 04/M07 A3021 RMK AO2 SLP258 T00391067 PNO $
KYNG 
18nm W 
232251Z 13005KT 10SM FEW100 OVC120 03/M06 A3019 RMK AO2 SLP235 T00281056
KFKL 
19nm E 
232256Z AUTO 13005KT 10SM FEW120 02/M07 A3020 RMK AO2 SLP248 T00221067 FZRANO
KGKJ 
22nm N 
232253Z AUTO 00000KT 10SM SCT120 02/M08 A3019 RMK AO2 SLP239 T00221078
KPJC 
29nm S 
232256Z AUTO 00000KT 10SM SCT120 01/M03 A3021 RMK AO2
KBVI 
31nm S 
232255Z AUTO 12003KT 10SM OVC110 05/M06 A3020 RMK AO2 T00471064
TAF
KYNG 
18nm W 
231136Z 2312/2412 14004KT P6SM BKN200 FM231700 15004KT P6SM OVC200 FM232300 13004KT P6SM OVC100 FM240700 11005KT P6SM OVC060
KFKL 
19nm E 
231744Z 2318/2418 12003KT P6SM BKN150 FM240000 11005KT P6SM OVC100 FM241700 13009KT P6SM VCSH BKN050
NOTAMs
Click for the latest NOTAMs
NOTAMs are issued by the DoD/FAA and will open in a separate window not controlled by AirNav.

 

 
 

Would you like to see your business listed on this page?

 If your business provides an interesting product or service to pilots, flight crews, aircraft, or users of the Station 219 Heliport, you should consider listing it here.  To start the listing process, click on the button below
 
Add a business
 

Other Pages about Station 219 Heliport

Update a link
 
Copyright © AirNav, LLC. All rights reserved. Privacy Policy  Contact